createdAt,value
2023-05-19T00:01:20.827Z,36.80
2023-05-19T00:03:55.917Z,39.97
2023-05-19T00:06:28.445Z,36.35
2023-05-19T00:09:07.265Z,36.00
2023-05-19T00:11:41.112Z,40.17
2023-05-19T00:14:12.727Z,35.67
2023-05-19T00:16:43.914Z,34.80
2023-05-19T00:19:14.023Z,34.83
2023-05-19T00:21:43.699Z,38.90
2023-05-19T00:24:13.252Z,35.28
2023-05-19T00:26:43.021Z,34.38
2023-05-19T00:29:12.756Z,34.03
2023-05-19T00:31:42.376Z,40.72
2023-05-19T00:34:12.385Z,39.25
2023-05-19T00:36:42.732Z,31.58
2023-05-19T00:39:12.708Z,42.35
2023-05-19T00:41:42.492Z,36.90
2023-05-19T00:44:12.124Z,34.92
2023-05-19T00:46:43.052Z,31.60
2023-05-19T00:49:13.077Z,31.92
2023-05-19T00:51:43.507Z,32.33
2023-05-19T00:54:13.170Z,35.47
2023-05-19T00:56:42.959Z,35.53
2023-05-19T00:59:15.792Z,30.98
2023-05-19T01:01:47.411Z,33.97
2023-05-19T01:04:21.768Z,32.83
2023-05-19T01:06:56.535Z,33.67
2023-05-19T01:09:29.684Z,32.03
2023-05-19T01:12:01.801Z,36.78
2023-05-19T01:14:32.187Z,36.50
2023-05-19T01:17:29.306Z,23.90
2023-05-19T01:20:15.214Z,29.20
2023-05-19T01:23:25.651Z,25.65
2023-05-19T01:26:25.233Z,25.50
2023-05-19T01:29:34.015Z,32.20
2023-05-19T01:32:06.244Z,25.17
2023-05-19T01:34:39.915Z,34.92
2023-05-19T01:37:10.927Z,33.10
2023-05-19T01:39:42.009Z,29.90
2023-05-19T01:42:12.512Z,24.27
2023-05-19T01:44:42.414Z,25.05
2023-05-19T01:47:12.832Z,29.90
2023-05-19T01:49:42.667Z,28.33
2023-05-19T01:52:12.341Z,29.75
2023-05-19T01:54:41.958Z,27.13
2023-05-19T01:57:26.380Z,36.83
2023-05-19T02:00:35.327Z,33.78
2023-05-19T02:03:34.083Z,22.33
2023-05-19T02:06:27.427Z,30.98
2023-05-19T02:09:10.247Z,29.27
2023-05-19T02:11:56.861Z,28.83
2023-05-19T02:14:47.357Z,26.17
2023-05-19T02:17:18.305Z,30.33
2023-05-19T02:19:48.273Z,28.77
2023-05-19T02:22:17.924Z,29.70
2023-05-19T02:24:49.401Z,32.88
2023-05-19T02:27:19.942Z,27.10
2023-05-19T02:29:49.529Z,25.73
2023-05-19T02:32:19.784Z,22.83
2023-05-19T02:34:49.988Z,29.60
2023-05-19T02:37:20.336Z,37.50
2023-05-19T02:39:49.922Z,27.75
2023-05-19T02:42:20.044Z,34.28
2023-05-19T02:44:49.578Z,26.92
2023-05-19T02:47:19.206Z,35.10
2023-05-19T02:49:48.848Z,30.42
2023-05-19T02:52:18.442Z,29.15
2023-05-19T02:54:48.092Z,24.42
2023-05-19T02:57:17.875Z,22.13
2023-05-19T02:59:47.511Z,26.98
2023-05-19T03:02:17.151Z,29.80
2023-05-19T03:04:47.306Z,27.85
2023-05-19T03:07:17.241Z,34.75
2023-05-19T03:09:46.771Z,21.98
2023-05-19T03:12:16.416Z,25.45
2023-05-19T03:14:46.029Z,29.02
2023-05-19T03:17:15.623Z,30.58
2023-05-19T03:19:45.296Z,27.40
2023-05-19T03:22:15.004Z,27.88
2023-05-19T03:24:44.622Z,28.15
2023-05-19T03:27:15.161Z,29.88
2023-05-19T03:29:44.808Z,31.80
2023-05-19T03:32:14.430Z,27.83
2023-05-19T03:34:45.925Z,22.38
2023-05-19T03:37:15.593Z,24.88
2023-05-19T03:39:45.251Z,26.85
2023-05-19T03:42:14.950Z,34.40
2023-05-19T03:44:47.763Z,28.48
2023-05-19T03:47:17.696Z,22.33
2023-05-19T03:49:47.319Z,23.55
2023-05-19T03:52:17.381Z,25.75
2023-05-19T03:54:47.061Z,36.40
2023-05-19T03:57:17.220Z,31.65
2023-05-19T03:59:46.967Z,26.35
2023-05-19T04:02:16.818Z,34.72
2023-05-19T04:04:46.635Z,25.67
2023-05-19T04:07:16.296Z,30.75
2023-05-19T04:09:46.735Z,27.23
2023-05-19T04:12:19.112Z,22.25
2023-05-19T04:14:48.695Z,25.60
2023-05-19T04:17:18.274Z,27.98
2023-05-19T04:19:47.930Z,25.92
2023-05-19T04:22:17.575Z,28.27
2023-05-19T04:24:48.162Z,23.00
2023-05-19T04:27:19.430Z,26.88
2023-05-19T04:29:49.955Z,28.48
2023-05-19T04:32:19.533Z,27.20
2023-05-19T04:34:49.104Z,25.50
2023-05-19T04:37:21.601Z,27.02
2023-05-19T04:39:51.778Z,22.45
2023-05-19T04:42:21.371Z,22.40
2023-05-19T04:44:53.983Z,30.45
2023-05-19T04:47:23.793Z,24.05
2023-05-19T04:49:57.204Z,27.98
2023-05-19T04:52:29.346Z,27.02
2023-05-19T04:54:59.070Z,26.40
2023-05-19T04:57:28.640Z,29.48
2023-05-19T05:00:01.665Z,20.95
2023-05-19T05:02:31.309Z,22.42
2023-05-19T05:05:01.109Z,24.35
2023-05-19T05:07:32.228Z,24.17
2023-05-19T05:10:02.071Z,26.27
2023-05-19T05:12:31.947Z,25.58
2023-05-19T05:15:02.051Z,20.27
2023-05-19T05:17:32.449Z,31.48
2023-05-19T05:20:02.417Z,24.35
2023-05-19T05:22:32.413Z,25.63
2023-05-19T05:25:02.990Z,26.77
2023-05-19T05:27:33.005Z,28.05
2023-05-19T05:30:02.674Z,30.48
2023-05-19T05:32:32.505Z,20.42
2023-05-19T05:35:02.373Z,24.27
2023-05-19T05:37:32.798Z,22.80
2023-05-19T05:40:03.133Z,22.73
2023-05-19T05:42:32.823Z,24.35
2023-05-19T05:45:02.360Z,31.25
2023-05-19T05:47:34.846Z,22.15
2023-05-19T05:50:05.350Z,22.77
2023-05-19T05:52:35.902Z,26.05
2023-05-19T05:55:06.743Z,21.88
2023-05-19T05:57:39.395Z,26.17
2023-05-19T06:00:17.069Z,27.85
2023-05-19T06:02:52.158Z,23.40
2023-05-19T06:05:22.051Z,23.40
2023-05-19T06:07:51.693Z,27.58
2023-05-19T06:10:27.765Z,30.70
2023-05-19T06:12:57.710Z,23.48
2023-05-19T06:15:27.426Z,21.40
2023-05-19T06:17:57.097Z,28.77
2023-05-19T06:20:26.939Z,23.77
2023-05-19T06:22:56.494Z,25.98
2023-05-19T06:25:26.408Z,31.85
2023-05-19T06:27:56.239Z,20.92
2023-05-19T06:30:25.930Z,24.98
2023-05-19T06:32:55.541Z,29.90
2023-05-19T06:35:25.105Z,21.95
2023-05-19T06:37:54.884Z,21.35
2023-05-19T06:40:28.685Z,19.02
2023-05-19T06:42:58.311Z,26.83
2023-05-19T06:45:28.190Z,19.60
2023-05-19T06:48:00.024Z,20.42
2023-05-19T06:50:29.866Z,26.27
2023-05-19T06:53:00.038Z,19.38
2023-05-19T06:55:33.509Z,19.95
2023-05-19T06:58:04.149Z,23.88
2023-05-19T07:00:34.153Z,27.63
2023-05-19T07:03:04.045Z,24.05
2023-05-19T07:05:33.721Z,24.88
2023-05-19T07:08:03.457Z,26.05
2023-05-19T07:10:33.254Z,28.98
2023-05-19T07:13:03.154Z,19.23
2023-05-19T07:15:35.449Z,21.17
2023-05-19T07:18:05.094Z,29.30
2023-05-19T07:20:35.014Z,19.45
2023-05-19T07:23:04.761Z,19.10
2023-05-19T07:25:34.991Z,21.50
2023-05-19T07:28:04.578Z,29.27
2023-05-19T07:30:34.536Z,16.85
2023-05-19T07:33:04.451Z,23.75
2023-05-19T07:35:34.128Z,19.70
2023-05-19T07:38:04.072Z,26.75
2023-05-19T07:40:37.426Z,30.38
2023-05-19T07:43:07.405Z,32.75
2023-05-19T07:45:37.043Z,24.95
2023-05-19T07:48:06.841Z,20.65
2023-05-19T07:50:36.529Z,20.40
2023-05-19T07:53:14.737Z,21.70
2023-05-19T07:55:44.430Z,15.85
2023-05-19T07:58:14.160Z,18.55
2023-05-19T08:00:47.713Z,24.20
2023-05-19T08:03:19.505Z,25.85
2023-05-19T08:05:49.293Z,19.17
2023-05-19T08:08:21.665Z,15.15
2023-05-19T08:10:51.292Z,23.88
2023-05-19T08:13:20.868Z,20.45
2023-05-19T08:15:50.603Z,21.23
2023-05-19T08:18:22.343Z,40.25
2023-05-19T08:20:52.134Z,25.02
2023-05-19T08:23:21.853Z,29.48
2023-05-19T08:25:53.294Z,22.63
2023-05-19T08:28:23.157Z,26.02
2023-05-19T08:30:54.704Z,25.92
2023-05-19T08:33:26.418Z,27.00
2023-05-19T08:35:59.253Z,24.00
2023-05-19T08:38:29.335Z,25.42
2023-05-19T08:41:00.314Z,24.33
2023-05-19T08:43:33.597Z,28.25
2023-05-19T08:46:05.537Z,24.23
2023-05-19T08:48:37.113Z,25.30
2023-05-19T08:51:35.706Z,21.30
2023-05-19T08:54:17.468Z,22.05
2023-05-19T08:56:48.181Z,22.98
2023-05-19T08:59:19.230Z,29.33
2023-05-19T09:01:49.659Z,26.27
2023-05-19T09:04:19.735Z,27.20
2023-05-19T09:06:49.994Z,30.75
2023-05-19T09:09:19.676Z,20.85
2023-05-19T09:11:51.665Z,27.63
2023-05-19T09:14:21.243Z,26.23
2023-05-19T09:16:54.049Z,32.47
2023-05-19T09:19:24.364Z,32.95
2023-05-19T09:22:08.023Z,28.77
2023-05-19T09:24:37.736Z,26.88
2023-05-19T09:27:07.528Z,26.15
2023-05-19T09:29:37.263Z,31.42
2023-05-19T09:32:07.732Z,27.73
2023-05-19T09:34:43.356Z,30.33
2023-05-19T09:37:18.686Z,22.50
2023-05-19T09:39:52.644Z,27.20
2023-05-19T09:42:31.486Z,20.45
2023-05-19T09:45:05.221Z,20.05
2023-05-19T09:47:42.927Z,26.05
2023-05-19T09:50:15.744Z,25.77
2023-05-19T09:52:48.510Z,21.60
2023-05-19T09:55:18.442Z,19.35
2023-05-19T09:57:48.192Z,18.17
2023-05-19T10:00:19.726Z,22.98
2023-05-19T10:02:56.055Z,20.83
2023-05-19T10:05:26.387Z,23.05
2023-05-19T10:07:57.272Z,24.02
2023-05-19T10:10:27.606Z,23.23
2023-05-19T10:12:57.588Z,26.65
2023-05-19T10:15:33.049Z,26.45
2023-05-19T10:18:06.812Z,29.77
2023-05-19T10:20:37.997Z,29.75
2023-05-19T10:23:10.161Z,24.08
2023-05-19T10:25:40.686Z,26.30
2023-05-19T10:28:17.145Z,36.17
2023-05-19T10:30:52.736Z,31.40
2023-05-19T10:33:24.738Z,29.17
2023-05-19T10:36:24.744Z,29.70
2023-05-19T10:39:02.772Z,23.92
2023-05-19T10:41:49.307Z,27.48
2023-05-19T10:44:42.747Z,30.05
2023-05-19T10:47:13.676Z,31.35
2023-05-19T10:49:43.418Z,30.65
2023-05-19T10:52:35.267Z,32.45
2023-05-19T10:55:06.570Z,29.58
2023-05-19T10:57:36.381Z,34.67
2023-05-19T11:00:27.236Z,48.00
2023-05-19T11:03:15.146Z,32.10
2023-05-19T11:05:48.248Z,28.98
2023-05-19T11:08:19.564Z,28.20
2023-05-19T11:10:49.229Z,28.83
2023-05-19T11:13:23.383Z,26.88
2023-05-19T11:15:53.950Z,28.75
2023-05-19T11:18:23.588Z,29.63
2023-05-19T11:21:03.863Z,30.30
2023-05-19T11:23:39.831Z,30.15
2023-05-19T11:26:10.875Z,38.25
2023-05-19T11:28:41.780Z,40.80
2023-05-19T11:31:12.080Z,30.08
2023-05-19T11:33:42.269Z,33.00
2023-05-19T11:36:15.509Z,30.05
2023-05-19T11:38:45.265Z,21.98
2023-05-19T11:41:19.516Z,26.55
2023-05-19T11:43:50.616Z,22.77
2023-05-19T11:46:20.939Z,29.50
2023-05-19T11:48:50.550Z,25.67
2023-05-19T11:51:22.927Z,26.67
2023-05-19T11:53:53.353Z,26.05
2023-05-19T11:56:25.910Z,25.77
2023-05-19T11:58:56.305Z,32.22
2023-05-19T12:01:28.666Z,27.52
2023-05-19T12:03:58.392Z,24.23
2023-05-19T12:06:31.904Z,26.27
2023-05-19T12:09:01.705Z,26.02
2023-05-19T12:11:31.534Z,33.10
2023-05-19T12:14:04.472Z,23.35
2023-05-19T12:16:37.791Z,29.40
2023-05-19T12:19:11.284Z,29.88
2023-05-19T12:21:41.420Z,22.00
2023-05-19T12:24:11.650Z,29.38
2023-05-19T12:26:42.625Z,24.63
2023-05-19T12:29:12.280Z,25.90
2023-05-19T12:31:42.092Z,20.98
2023-05-19T12:34:14.858Z,22.73
2023-05-19T12:36:44.695Z,22.98
2023-05-19T12:39:16.284Z,29.35
2023-05-19T12:41:48.392Z,27.60
2023-05-19T12:44:20.643Z,33.17
2023-05-19T12:46:56.938Z,33.03
2023-05-19T12:49:26.621Z,39.50
2023-05-19T12:51:56.903Z,38.50
2023-05-19T12:54:26.618Z,39.17
2023-05-19T12:56:56.443Z,29.45
2023-05-19T12:59:38.398Z,31.02
2023-05-19T13:02:20.005Z,27.88
2023-05-19T13:04:50.099Z,21.98
2023-05-19T13:07:20.320Z,28.20
2023-05-19T13:09:49.969Z,29.15
2023-05-19T13:12:22.639Z,27.05
2023-05-19T13:14:53.503Z,27.35
2023-05-19T13:17:25.256Z,29.65
2023-05-19T13:19:54.934Z,29.05
2023-05-19T13:22:24.601Z,24.27
2023-05-19T13:24:54.951Z,25.35
2023-05-19T13:27:26.365Z,32.10
2023-05-19T13:29:56.027Z,28.10
2023-05-19T13:32:25.869Z,26.88
2023-05-19T13:34:55.450Z,25.95
2023-05-19T13:37:25.593Z,26.52
2023-05-19T13:39:55.658Z,25.60
2023-05-19T13:42:25.520Z,26.20
2023-05-19T13:44:58.725Z,28.90
2023-05-19T13:47:28.843Z,28.08
2023-05-19T13:49:58.945Z,22.60
2023-05-19T13:52:30.492Z,27.85
2023-05-19T13:55:00.416Z,28.75
2023-05-19T13:57:30.113Z,33.05
2023-05-19T14:00:03.445Z,25.73
2023-05-19T14:02:35.893Z,24.25
2023-05-19T14:05:06.212Z,27.38
2023-05-19T14:07:36.579Z,27.55
2023-05-19T14:10:08.453Z,26.50
2023-05-19T14:12:55.169Z,34.28
2023-05-19T14:15:29.076Z,28.33
2023-05-19T14:18:00.627Z,29.63
2023-05-19T14:20:30.326Z,30.77
2023-05-19T14:23:02.832Z,23.33
2023-05-19T14:25:32.530Z,25.80
2023-05-19T14:28:05.200Z,24.98
2023-05-19T14:30:37.319Z,25.38
2023-05-19T14:33:07.041Z,43.15
2023-05-19T14:35:36.759Z,32.05
2023-05-19T14:38:06.367Z,28.58
2023-05-19T14:40:38.351Z,35.83
2023-05-19T14:43:07.891Z,33.97
2023-05-19T14:45:37.680Z,32.40
2023-05-19T14:48:08.106Z,24.92
2023-05-19T14:50:37.683Z,41.83
2023-05-19T14:53:07.651Z,33.22
2023-05-19T14:55:37.247Z,30.58
2023-05-19T14:58:15.841Z,29.33
2023-05-19T15:00:50.403Z,37.85
2023-05-19T15:03:19.999Z,31.17
2023-05-19T15:05:53.913Z,27.85
2023-05-19T15:08:23.620Z,30.95
2023-05-19T15:10:55.656Z,34.33
2023-05-19T15:13:25.293Z,32.53
2023-05-19T15:16:12.516Z,38.60
2023-05-19T15:18:48.123Z,37.75
2023-05-19T15:21:17.835Z,38.63
2023-05-19T15:23:47.631Z,26.58
2023-05-19T15:26:19.953Z,40.88
2023-05-19T15:28:49.626Z,34.22
2023-05-19T15:31:19.732Z,32.45
2023-05-19T15:33:49.314Z,35.03
2023-05-19T15:36:20.793Z,34.70
2023-05-19T15:38:50.548Z,33.55
2023-05-19T15:41:20.177Z,30.35
2023-05-19T15:43:49.850Z,30.95
2023-05-19T15:46:21.310Z,29.55
2023-05-19T15:48:51.003Z,33.63
2023-05-19T15:51:20.713Z,41.00
2023-05-19T15:53:50.356Z,32.60
2023-05-19T15:56:21.118Z,35.35
2023-05-19T15:58:53.124Z,36.55
2023-05-19T16:01:23.426Z,32.10
2023-05-19T16:03:53.221Z,31.10
2023-05-19T16:06:22.971Z,33.38
2023-05-19T16:08:52.590Z,32.15
2023-05-19T16:11:26.620Z,37.08
2023-05-19T16:13:56.235Z,28.98
2023-05-19T16:16:25.988Z,24.92
2023-05-19T16:18:55.605Z,28.23
2023-05-19T16:21:25.272Z,24.95
2023-05-19T16:23:54.909Z,36.95
2023-05-19T16:26:24.539Z,28.33
2023-05-19T16:28:54.367Z,38.05
2023-05-19T16:31:24.031Z,30.45
2023-05-19T16:33:53.644Z,31.75
2023-05-19T16:36:24.442Z,25.13
2023-05-19T16:38:55.086Z,37.20
2023-05-19T16:41:27.308Z,32.60
2023-05-19T16:43:57.029Z,28.92
2023-05-19T16:46:27.842Z,35.90
2023-05-19T16:48:58.701Z,30.70
2023-05-19T16:51:28.370Z,25.60
2023-05-19T16:53:58.070Z,27.73
2023-05-19T16:56:27.648Z,26.48
2023-05-19T16:58:57.483Z,28.88
2023-05-19T17:01:27.132Z,27.63
2023-05-19T17:03:59.405Z,28.92
2023-05-19T17:06:29.138Z,29.95
2023-05-19T17:08:58.763Z,29.90
2023-05-19T17:11:29.212Z,23.80
2023-05-19T17:13:58.833Z,24.00
2023-05-19T17:16:28.556Z,27.33
2023-05-19T17:18:58.166Z,28.67
2023-05-19T17:21:27.923Z,30.80
2023-05-19T17:23:57.775Z,27.23
2023-05-19T17:26:28.152Z,31.17
2023-05-19T17:28:57.850Z,27.80
2023-05-19T17:31:27.889Z,28.88
2023-05-19T17:33:57.473Z,23.50
2023-05-19T17:36:27.777Z,24.65
2023-05-19T17:39:00.529Z,30.65
2023-05-19T17:41:30.218Z,32.45
2023-05-19T17:43:59.922Z,35.83
2023-05-19T17:46:31.792Z,31.48
2023-05-19T17:49:01.515Z,25.58
2023-05-19T17:51:31.395Z,31.25
2023-05-19T17:54:01.520Z,28.50
2023-05-19T17:56:34.949Z,33.15
2023-05-19T17:59:04.786Z,34.08
2023-05-19T18:01:35.329Z,33.55
2023-05-19T18:04:05.649Z,31.50
2023-05-19T18:06:36.905Z,33.10
2023-05-19T18:09:10.573Z,30.23
2023-05-19T18:11:40.102Z,35.95
2023-05-19T18:14:09.860Z,31.45
2023-05-19T18:16:39.755Z,28.83
2023-05-19T18:19:09.386Z,34.55
2023-05-19T18:21:39.035Z,35.45
2023-05-19T18:24:08.895Z,28.02
2023-05-19T18:26:43.324Z,26.48
2023-05-19T18:29:13.528Z,40.80
2023-05-19T18:31:44.372Z,35.40
2023-05-19T18:34:15.623Z,39.38
2023-05-19T18:36:45.255Z,33.38
2023-05-19T18:39:15.068Z,37.70
2023-05-19T18:41:44.622Z,39.20
2023-05-19T18:44:14.508Z,39.50
2023-05-19T18:46:44.197Z,30.00
2023-05-19T18:49:13.893Z,35.15
2023-05-19T18:51:43.712Z,40.90
2023-05-19T18:54:14.097Z,31.25
2023-05-19T18:56:44.048Z,36.05
2023-05-19T18:59:13.672Z,31.08
2023-05-19T19:01:44.476Z,37.20
2023-05-19T19:04:16.359Z,43.55
2023-05-19T19:06:46.087Z,38.40
2023-05-19T19:09:16.182Z,31.42
2023-05-19T19:11:45.952Z,36.78
2023-05-19T19:14:15.604Z,35.38
2023-05-19T19:16:45.295Z,26.20
2023-05-19T19:19:15.098Z,31.23
2023-05-19T19:21:45.007Z,28.50
2023-05-19T19:24:15.438Z,32.30
2023-05-19T19:26:45.153Z,29.50
2023-05-19T19:29:19.839Z,30.70
2023-05-19T19:31:49.587Z,34.60
2023-05-19T19:34:21.458Z,34.92
2023-05-19T19:36:54.921Z,31.17
2023-05-19T19:39:24.570Z,30.02
2023-05-19T19:41:54.286Z,29.00
2023-05-19T19:44:27.116Z,31.33
2023-05-19T19:46:56.762Z,28.15
2023-05-19T19:49:26.370Z,28.85
2023-05-19T19:51:56.028Z,26.80
2023-05-19T19:54:28.151Z,31.98
2023-05-19T19:56:57.815Z,31.05
2023-05-19T19:59:27.692Z,31.80
2023-05-19T20:01:57.381Z,40.70
2023-05-19T20:04:27.119Z,36.45
2023-05-19T20:06:56.713Z,27.75
2023-05-19T20:09:26.473Z,34.78
2023-05-19T20:11:56.039Z,31.85
2023-05-19T20:14:25.795Z,37.00
2023-05-19T20:16:55.372Z,31.23
2023-05-19T20:19:30.854Z,33.88
2023-05-19T20:22:00.472Z,28.70
2023-05-19T20:24:30.133Z,35.28
2023-05-19T20:27:03.062Z,33.72
2023-05-19T20:29:35.149Z,34.15
2023-05-19T20:32:04.774Z,36.53
2023-05-19T20:34:34.436Z,36.40
2023-05-19T20:37:04.123Z,41.97
2023-05-19T20:39:33.727Z,36.85
2023-05-19T20:42:05.671Z,34.63
2023-05-19T20:44:35.284Z,39.38
2023-05-19T20:47:05.865Z,32.00
2023-05-19T20:49:35.803Z,31.45
2023-05-19T20:52:05.545Z,36.22
2023-05-19T20:54:35.280Z,38.28
2023-05-19T20:57:08.171Z,33.10
2023-05-19T20:59:38.290Z,34.72
2023-05-19T21:02:09.208Z,40.40
2023-05-19T21:04:39.558Z,34.55
2023-05-19T21:07:09.285Z,34.38
2023-05-19T21:09:39.040Z,38.30
2023-05-19T21:12:08.854Z,35.38
2023-05-19T21:14:38.529Z,39.17
2023-05-19T21:17:08.988Z,38.67
2023-05-19T21:19:39.528Z,40.28
2023-05-19T21:22:09.179Z,40.10
2023-05-19T21:24:38.904Z,43.58
2023-05-19T21:27:08.544Z,34.55
2023-05-19T21:29:38.185Z,36.72
2023-05-19T21:32:08.269Z,32.38
2023-05-19T21:34:38.029Z,38.13
2023-05-19T21:37:10.378Z,29.80
2023-05-19T21:39:42.145Z,38.03
2023-05-19T21:42:11.790Z,34.80
2023-05-19T21:44:41.592Z,36.10
2023-05-19T21:47:14.290Z,36.40
2023-05-19T21:49:43.953Z,35.75
2023-05-19T21:52:13.667Z,27.35
2023-05-19T21:54:43.327Z,36.58
2023-05-19T21:57:14.166Z,36.88
2023-05-19T21:59:43.747Z,30.95
2023-05-19T22:02:13.442Z,40.20
2023-05-19T22:04:44.589Z,37.95
2023-05-19T22:07:14.342Z,32.80
2023-05-19T22:09:44.097Z,32.80
2023-05-19T22:12:13.740Z,31.45
2023-05-19T22:14:43.636Z,41.00
2023-05-19T22:17:13.274Z,33.15
2023-05-19T22:19:42.965Z,32.40
2023-05-19T22:22:14.176Z,34.75
2023-05-19T22:24:46.695Z,35.83
2023-05-19T22:27:16.411Z,39.03
2023-05-19T22:29:46.164Z,33.38
2023-05-19T22:32:18.450Z,36.33
2023-05-19T22:34:48.450Z,35.72
2023-05-19T22:37:18.307Z,35.42
2023-05-19T22:39:50.350Z,30.23
2023-05-19T22:42:20.322Z,30.67
2023-05-19T22:44:50.012Z,35.42
2023-05-19T22:47:19.706Z,32.05
2023-05-19T22:49:49.512Z,30.85
2023-05-19T22:52:19.425Z,29.40
2023-05-19T22:54:49.152Z,36.75
2023-05-19T22:57:19.380Z,38.35
2023-05-19T22:59:49.070Z,33.67
2023-05-19T23:02:18.798Z,41.13
2023-05-19T23:04:48.436Z,35.35
2023-05-19T23:07:18.113Z,37.40
2023-05-19T23:09:47.712Z,38.72
2023-05-19T23:12:17.277Z,34.00
2023-05-19T23:14:46.890Z,46.53
2023-05-19T23:17:16.463Z,34.53
2023-05-19T23:19:46.118Z,34.30
2023-05-19T23:22:17.814Z,44.33
2023-05-19T23:24:47.639Z,44.15
2023-05-19T23:27:17.305Z,40.60
2023-05-19T23:29:50.900Z,38.50
2023-05-19T23:32:20.585Z,41.22
2023-05-19T23:34:50.526Z,42.28
2023-05-19T23:37:20.206Z,43.15
2023-05-19T23:39:49.860Z,39.60
2023-05-19T23:42:20.350Z,40.30
2023-05-19T23:44:50.078Z,45.10
2023-05-19T23:47:19.738Z,47.17
2023-05-19T23:49:50.354Z,42.97
2023-05-19T23:52:23.049Z,40.80
2023-05-19T23:54:52.798Z,46.42
2023-05-19T23:57:22.334Z,40.97
2023-05-19T23:59:52.023Z,39.85
